sensor_id;sensor_type;location;lat;lon;timestamp;P1;durP1;ratioP1;P2;durP2;ratioP2
50519;SDS011;36468;44.098;3.078;2023-03-24T00:01:54;4.05;;;1.45;;
50519;SDS011;36468;44.098;3.078;2023-03-24T00:04:21;3.33;;;1.73;;
50519;SDS011;36468;44.098;3.078;2023-03-24T00:06:48;2.88;;;1.50;;
50519;SDS011;36468;44.098;3.078;2023-03-24T00:09:16;4.75;;;1.67;;
50519;SDS011;36468;44.098;3.078;2023-03-24T00:11:43;3.05;;;1.20;;
50519;SDS011;36468;44.098;3.078;2023-03-24T00:14:09;4.38;;;1.70;;
50519;SDS011;36468;44.098;3.078;2023-03-24T00:16:39;1.33;;;0.77;;
50519;SDS011;36468;44.098;3.078;2023-03-24T00:19:09;1.02;;;0.70;;
50519;SDS011;36468;44.098;3.078;2023-03-24T00:21:37;2.38;;;1.10;;
50519;SDS011;36468;44.098;3.078;2023-03-24T00:24:04;3.00;;;1.08;;
50519;SDS011;36468;44.098;3.078;2023-03-24T00:26:34;2.67;;;1.10;;
50519;SDS011;36468;44.098;3.078;2023-03-24T00:29:04;2.00;;;0.95;;
50519;SDS011;36468;44.098;3.078;2023-03-24T00:31:30;3.40;;;1.10;;
50519;SDS011;36468;44.098;3.078;2023-03-24T00:33:57;1.15;;;0.70;;
50519;SDS011;36468;44.098;3.078;2023-03-24T00:36:24;2.33;;;0.80;;
50519;SDS011;36468;44.098;3.078;2023-03-24T00:38:53;1.80;;;1.20;;
50519;SDS011;36468;44.098;3.078;2023-03-24T00:41:19;3.10;;;1.00;;
50519;SDS011;36468;44.098;3.078;2023-03-24T00:43:46;3.42;;;0.90;;
50519;SDS011;36468;44.098;3.078;2023-03-24T00:46:13;2.30;;;0.80;;
50519;SDS011;36468;44.098;3.078;2023-03-24T00:48:52;2.47;;;0.90;;
50519;SDS011;36468;44.098;3.078;2023-03-24T00:51:22;2.08;;;1.30;;
50519;SDS011;36468;44.098;3.078;2023-03-24T00:53:48;1.60;;;0.98;;
50519;SDS011;36468;44.098;3.078;2023-03-24T00:56:14;1.83;;;0.88;;
50519;SDS011;36468;44.098;3.078;2023-03-24T00:58:40;1.17;;;0.88;;
50519;SDS011;36468;44.098;3.078;2023-03-24T01:01:06;2.13;;;1.17;;
50519;SDS011;36468;44.098;3.078;2023-03-24T01:03:32;1.77;;;0.80;;
50519;SDS011;36468;44.098;3.078;2023-03-24T01:05:59;3.90;;;0.80;;
50519;SDS011;36468;44.098;3.078;2023-03-24T01:08:26;2.28;;;0.75;;
50519;SDS011;36468;44.098;3.078;2023-03-24T01:10:52;2.00;;;0.80;;
50519;SDS011;36468;44.098;3.078;2023-03-24T01:13:23;1.88;;;0.75;;
50519;SDS011;36468;44.098;3.078;2023-03-24T01:15:50;1.25;;;0.70;;
50519;SDS011;36468;44.098;3.078;2023-03-24T01:18:17;1.67;;;0.60;;
50519;SDS011;36468;44.098;3.078;2023-03-24T01:20:44;1.27;;;0.60;;
50519;SDS011;36468;44.098;3.078;2023-03-24T01:23:11;0.47;;;0.47;;
50519;SDS011;36468;44.098;3.078;2023-03-24T01:25:37;1.48;;;0.60;;
50519;SDS011;36468;44.098;3.078;2023-03-24T01:28:03;0.75;;;0.50;;
50519;SDS011;36468;44.098;3.078;2023-03-24T01:30:30;0.90;;;0.60;;
50519;SDS011;36468;44.098;3.078;2023-03-24T01:32:56;4.07;;;0.45;;
50519;SDS011;36468;44.098;3.078;2023-03-24T01:35:22;0.63;;;0.32;;
50519;SDS011;36468;44.098;3.078;2023-03-24T01:37:50;1.10;;;0.45;;
50519;SDS011;36468;44.098;3.078;2023-03-24T01:40:17;0.40;;;0.40;;
50519;SDS011;36468;44.098;3.078;2023-03-24T01:42:43;0.30;;;0.30;;
50519;SDS011;36468;44.098;3.078;2023-03-24T01:47:54;0.93;;;0.40;;
50519;SDS011;36468;44.098;3.078;2023-03-24T01:50:21;1.08;;;0.40;;
50519;SDS011;36468;44.098;3.078;2023-03-24T01:52:47;0.30;;;0.30;;
50519;SDS011;36468;44.098;3.078;2023-03-24T01:55:14;0.30;;;0.30;;
50519;SDS011;36468;44.098;3.078;2023-03-24T01:57:44;0.55;;;0.40;;
50519;SDS011;36468;44.098;3.078;2023-03-24T02:00:13;0.88;;;0.40;;
50519;SDS011;36468;44.098;3.078;2023-03-24T02:02:40;0.47;;;0.47;;
50519;SDS011;36468;44.098;3.078;2023-03-24T02:05:08;0.82;;;0.50;;
50519;SDS011;36468;44.098;3.078;2023-03-24T02:07:50;0.60;;;0.60;;
50519;SDS011;36468;44.098;3.078;2023-03-24T02:10:18;0.50;;;0.50;;
50519;SDS011;36468;44.098;3.078;2023-03-24T02:12:45;0.85;;;0.60;;
50519;SDS011;36468;44.098;3.078;2023-03-24T02:15:13;0.88;;;0.60;;
50519;SDS011;36468;44.098;3.078;2023-03-24T02:18:00;0.80;;;0.80;;
50519;SDS011;36468;44.098;3.078;2023-03-24T02:20:54;2.53;;;1.00;;
50519;SDS011;36468;44.098;3.078;2023-03-24T02:44:15;0.80;;;0.80;;
50519;SDS011;36468;44.098;3.078;2023-03-24T02:46:46;1.85;;;0.80;;
50519;SDS011;36468;44.098;3.078;2023-03-24T02:49:31;3.40;;;0.90;;
50519;SDS011;36468;44.098;3.078;2023-03-24T02:52:15;2.20;;;0.88;;
50519;SDS011;36468;44.098;3.078;2023-03-24T02:54:45;0.82;;;0.77;;
50519;SDS011;36468;44.098;3.078;2023-03-24T02:59:55;1.25;;;0.80;;
50519;SDS011;36468;44.098;3.078;2023-03-24T03:02:24;0.75;;;0.70;;
50519;SDS011;36468;44.098;3.078;2023-03-24T03:04:53;1.42;;;0.77;;
50519;SDS011;36468;44.098;3.078;2023-03-24T03:07:20;0.77;;;0.70;;
50519;SDS011;36468;44.098;3.078;2023-03-24T03:09:56;0.70;;;0.70;;
50519;SDS011;36468;44.098;3.078;2023-03-24T03:12:25;1.50;;;0.98;;
50519;SDS011;36468;44.098;3.078;2023-03-24T03:14:57;1.40;;;0.80;;
50519;SDS011;36468;44.098;3.078;2023-03-24T03:17:26;3.22;;;0.82;;
50519;SDS011;36468;44.098;3.078;2023-03-24T03:20:03;3.50;;;0.70;;
50519;SDS011;36468;44.098;3.078;2023-03-24T03:23:15;2.50;;;1.00;;
50519;SDS011;36468;44.098;3.078;2023-03-24T03:25:23;2.70;;;1.00;;
50519;SDS011;36468;44.098;3.078;2023-03-24T03:27:50;4.25;;;1.13;;
50519;SDS011;36468;44.098;3.078;2023-03-24T03:30:19;3.28;;;1.17;;
50519;SDS011;36468;44.098;3.078;2023-03-24T03:32:51;5.93;;;1.45;;
50519;SDS011;36468;44.098;3.078;2023-03-24T03:35:21;2.17;;;1.40;;
50519;SDS011;36468;44.098;3.078;2023-03-24T03:37:53;3.53;;;1.20;;
50519;SDS011;36468;44.098;3.078;2023-03-24T03:40:28;3.90;;;1.40;;
50519;SDS011;36468;44.098;3.078;2023-03-24T03:42:56;5.15;;;1.35;;
50519;SDS011;36468;44.098;3.078;2023-03-24T03:45:22;2.47;;;0.85;;
50519;SDS011;36468;44.098;3.078;2023-03-24T03:47:48;2.78;;;1.30;;
50519;SDS011;36468;44.098;3.078;2023-03-24T03:50:15;3.63;;;1.23;;
50519;SDS011;36468;44.098;3.078;2023-03-24T03:52:41;2.03;;;1.10;;
50519;SDS011;36468;44.098;3.078;2023-03-24T03:55:08;3.33;;;1.02;;
50519;SDS011;36468;44.098;3.078;2023-03-24T03:57:35;1.92;;;0.95;;
50519;SDS011;36468;44.098;3.078;2023-03-24T04:00:02;1.45;;;1.00;;
50519;SDS011;36468;44.098;3.078;2023-03-24T04:02:42;2.25;;;1.15;;
50519;SDS011;36468;44.098;3.078;2023-03-24T04:20:46;3.17;;;1.00;;
50519;SDS011;36468;44.098;3.078;2023-03-24T04:25:54;3.38;;;0.80;;
50519;SDS011;36468;44.098;3.078;2023-03-24T04:29:00;1.70;;;0.93;;
50519;SDS011;36468;44.098;3.078;2023-03-24T04:31:22;1.45;;;0.77;;
50519;SDS011;36468;44.098;3.078;2023-03-24T04:33:53;2.83;;;0.85;;
50519;SDS011;36468;44.098;3.078;2023-03-24T04:36:27;1.35;;;1.10;;
50519;SDS011;36468;44.098;3.078;2023-03-24T04:38:55;3.35;;;0.95;;
50519;SDS011;36468;44.098;3.078;2023-03-24T04:41:25;2.40;;;1.00;;
50519;SDS011;36468;44.098;3.078;2023-03-24T04:43:53;0.95;;;0.80;;
50519;SDS011;36468;44.098;3.078;2023-03-24T04:46:20;2.63;;;0.80;;
50519;SDS011;36468;44.098;3.078;2023-03-24T04:48:46;1.45;;;1.00;;
50519;SDS011;36468;44.098;3.078;2023-03-24T04:51:12;1.25;;;0.77;;
50519;SDS011;36468;44.098;3.078;2023-03-24T04:53:39;1.52;;;0.80;;
50519;SDS011;36468;44.098;3.078;2023-03-24T04:58:50;0.93;;;0.85;;
50519;SDS011;36468;44.098;3.078;2023-03-24T05:01:16;1.83;;;0.93;;
50519;SDS011;36468;44.098;3.078;2023-03-24T05:03:45;1.63;;;1.05;;
50519;SDS011;36468;44.098;3.078;2023-03-24T05:06:11;3.83;;;1.00;;
50519;SDS011;36468;44.098;3.078;2023-03-24T05:08:37;2.85;;;1.02;;
50519;SDS011;36468;44.098;3.078;2023-03-24T05:11:04;2.35;;;1.35;;
50519;SDS011;36468;44.098;3.078;2023-03-24T05:13:30;4.20;;;1.40;;
50519;SDS011;36468;44.098;3.078;2023-03-24T05:15:56;3.38;;;0.88;;
50519;SDS011;36468;44.098;3.078;2023-03-24T05:18:22;2.53;;;0.90;;
50519;SDS011;36468;44.098;3.078;2023-03-24T05:20:48;1.90;;;0.90;;
50519;SDS011;36468;44.098;3.078;2023-03-24T05:23:14;2.20;;;0.98;;
50519;SDS011;36468;44.098;3.078;2023-03-24T05:25:41;1.88;;;0.82;;
50519;SDS011;36468;44.098;3.078;2023-03-24T05:28:07;2.72;;;0.80;;
50519;SDS011;36468;44.098;3.078;2023-03-24T05:30:33;2.58;;;1.02;;
50519;SDS011;36468;44.098;3.078;2023-03-24T05:32:59;2.55;;;0.90;;
50519;SDS011;36468;44.098;3.078;2023-03-24T05:35:25;2.25;;;0.90;;
50519;SDS011;36468;44.098;3.078;2023-03-24T05:37:51;1.35;;;0.88;;
50519;SDS011;36468;44.098;3.078;2023-03-24T05:40:17;5.55;;;1.20;;
50519;SDS011;36468;44.098;3.078;2023-03-24T05:42:43;1.48;;;0.93;;
50519;SDS011;36468;44.098;3.078;2023-03-24T05:45:10;3.65;;;1.23;;
50519;SDS011;36468;44.098;3.078;2023-03-24T05:47:36;3.00;;;2.10;;
50519;SDS011;36468;44.098;3.078;2023-03-24T05:50:02;3.65;;;1.40;;
50519;SDS011;36468;44.098;3.078;2023-03-24T05:52:28;1.55;;;0.80;;
50519;SDS011;36468;44.098;3.078;2023-03-24T05:54:55;2.38;;;0.80;;
50519;SDS011;36468;44.098;3.078;2023-03-24T05:57:22;1.50;;;0.88;;
50519;SDS011;36468;44.098;3.078;2023-03-24T05:59:48;1.08;;;0.68;;
50519;SDS011;36468;44.098;3.078;2023-03-24T06:02:16;2.22;;;0.98;;
50519;SDS011;36468;44.098;3.078;2023-03-24T06:04:42;9.23;;;4.85;;
50519;SDS011;36468;44.098;3.078;2023-03-24T06:07:12;5.35;;;2.53;;
50519;SDS011;36468;44.098;3.078;2023-03-24T06:09:39;5.60;;;1.60;;
50519;SDS011;36468;44.098;3.078;2023-03-24T06:12:11;7.35;;;2.00;;
50519;SDS011;36468;44.098;3.078;2023-03-24T06:14:37;3.45;;;1.75;;
50519;SDS011;36468;44.098;3.078;2023-03-24T06:17:06;2.58;;;1.70;;
50519;SDS011;36468;44.098;3.078;2023-03-24T06:19:32;6.10;;;1.65;;
50519;SDS011;36468;44.098;3.078;2023-03-24T06:21:58;5.22;;;2.10;;
50519;SDS011;36468;44.098;3.078;2023-03-24T06:24:27;7.22;;;1.67;;
50519;SDS011;36468;44.098;3.078;2023-03-24T06:26:53;4.68;;;2.75;;
50519;SDS011;36468;44.098;3.078;2023-03-24T06:29:23;10.32;;;2.28;;
50519;SDS011;36468;44.098;3.078;2023-03-24T06:31:49;9.80;;;2.50;;
50519;SDS011;36468;44.098;3.078;2023-03-24T06:34:15;11.13;;;2.80;;
50519;SDS011;36468;44.098;3.078;2023-03-24T06:36:41;14.23;;;2.50;;
50519;SDS011;36468;44.098;3.078;2023-03-24T06:39:07;14.43;;;1.98;;
50519;SDS011;36468;44.098;3.078;2023-03-24T06:41:33;12.75;;;2.50;;
50519;SDS011;36468;44.098;3.078;2023-03-24T06:43:59;21.85;;;1.90;;
50519;SDS011;36468;44.098;3.078;2023-03-24T06:46:25;5.90;;;1.90;;
50519;SDS011;36468;44.098;3.078;2023-03-24T06:48:51;15.07;;;2.33;;
50519;SDS011;36468;44.098;3.078;2023-03-24T06:51:18;8.93;;;2.20;;
50519;SDS011;36468;44.098;3.078;2023-03-24T06:53:44;13.45;;;2.17;;
50519;SDS011;36468;44.098;3.078;2023-03-24T06:56:11;12.52;;;2.05;;
50519;SDS011;36468;44.098;3.078;2023-03-24T06:58:45;13.38;;;2.33;;
50519;SDS011;36468;44.098;3.078;2023-03-24T07:01:11;14.07;;;2.00;;
50519;SDS011;36468;44.098;3.078;2023-03-24T07:03:39;5.57;;;2.08;;
50519;SDS011;36468;44.098;3.078;2023-03-24T07:06:06;5.47;;;2.40;;
50519;SDS011;36468;44.098;3.078;2023-03-24T07:08:33;9.90;;;2.00;;
50519;SDS011;36468;44.098;3.078;2023-03-24T07:10:59;12.25;;;2.15;;
50519;SDS011;36468;44.098;3.078;2023-03-24T07:13:26;10.00;;;1.70;;
50519;SDS011;36468;44.098;3.078;2023-03-24T07:15:52;3.42;;;1.65;;
50519;SDS011;36468;44.098;3.078;2023-03-24T07:18:20;9.07;;;1.80;;
50519;SDS011;36468;44.098;3.078;2023-03-24T07:20:46;2.25;;;1.00;;
50519;SDS011;36468;44.098;3.078;2023-03-24T07:23:12;7.45;;;1.42;;
50519;SDS011;36468;44.098;3.078;2023-03-24T07:25:39;3.17;;;1.30;;
50519;SDS011;36468;44.098;3.078;2023-03-24T07:28:05;7.20;;;2.00;;
50519;SDS011;36468;44.098;3.078;2023-03-24T07:30:32;5.57;;;1.90;;
50519;SDS011;36468;44.098;3.078;2023-03-24T07:33:00;7.05;;;1.20;;
50519;SDS011;36468;44.098;3.078;2023-03-24T07:35:26;3.88;;;1.30;;
50519;SDS011;36468;44.098;3.078;2023-03-24T07:37:56;4.57;;;1.15;;
50519;SDS011;36468;44.098;3.078;2023-03-24T07:40:22;6.53;;;1.55;;
50519;SDS011;36468;44.098;3.078;2023-03-24T07:42:48;2.08;;;1.20;;
50519;SDS011;36468;44.098;3.078;2023-03-24T07:45:15;6.18;;;1.10;;
50519;SDS011;36468;44.098;3.078;2023-03-24T07:47:42;1.52;;;1.02;;
50519;SDS011;36468;44.098;3.078;2023-03-24T07:50:09;3.05;;;1.17;;
50519;SDS011;36468;44.098;3.078;2023-03-24T07:52:41;3.90;;;1.00;;
50519;SDS011;36468;44.098;3.078;2023-03-24T07:55:08;4.40;;;1.50;;
50519;SDS011;36468;44.098;3.078;2023-03-24T07:57:40;9.57;;;1.27;;
50519;SDS011;36468;44.098;3.078;2023-03-24T08:00:06;3.05;;;1.45;;
50519;SDS011;36468;44.098;3.078;2023-03-24T08:02:39;4.75;;;1.60;;
50519;SDS011;36468;44.098;3.078;2023-03-24T08:05:06;5.40;;;1.63;;
50519;SDS011;36468;44.098;3.078;2023-03-24T08:07:32;5.80;;;1.70;;
50519;SDS011;36468;44.098;3.078;2023-03-24T08:09:59;4.50;;;1.73;;
50519;SDS011;36468;44.098;3.078;2023-03-24T08:12:25;7.60;;;1.58;;
50519;SDS011;36468;44.098;3.078;2023-03-24T08:14:51;3.03;;;1.25;;
50519;SDS011;36468;44.098;3.078;2023-03-24T08:17:17;7.72;;;2.10;;
50519;SDS011;36468;44.098;3.078;2023-03-24T08:19:43;5.90;;;2.10;;
50519;SDS011;36468;44.098;3.078;2023-03-24T08:22:09;8.18;;;2.40;;
50519;SDS011;36468;44.098;3.078;2023-03-24T08:24:36;11.80;;;2.35;;
50519;SDS011;36468;44.098;3.078;2023-03-24T08:27:02;8.40;;;2.15;;
50519;SDS011;36468;44.098;3.078;2023-03-24T08:29:30;10.20;;;1.70;;
50519;SDS011;36468;44.098;3.078;2023-03-24T08:31:58;5.53;;;1.25;;
50519;SDS011;36468;44.098;3.078;2023-03-24T08:34:25;7.32;;;1.50;;
50519;SDS011;36468;44.098;3.078;2023-03-24T08:36:51;3.50;;;1.30;;
50519;SDS011;36468;44.098;3.078;2023-03-24T08:39:17;6.50;;;1.38;;
50519;SDS011;36468;44.098;3.078;2023-03-24T08:41:44;7.60;;;1.17;;
50519;SDS011;36468;44.098;3.078;2023-03-24T08:44:10;2.70;;;1.00;;
50519;SDS011;36468;44.098;3.078;2023-03-24T08:46:37;4.75;;;1.17;;
50519;SDS011;36468;44.098;3.078;2023-03-24T08:49:03;3.75;;;1.35;;
50519;SDS011;36468;44.098;3.078;2023-03-24T08:51:29;4.75;;;0.90;;
50519;SDS011;36468;44.098;3.078;2023-03-24T08:53:55;9.07;;;1.00;;
50519;SDS011;36468;44.098;3.078;2023-03-24T08:56:21;7.07;;;1.25;;
50519;SDS011;36468;44.098;3.078;2023-03-24T08:58:48;4.22;;;1.17;;
50519;SDS011;36468;44.098;3.078;2023-03-24T09:01:17;3.40;;;0.90;;
50519;SDS011;36468;44.098;3.078;2023-03-24T09:03:44;3.78;;;1.00;;
50519;SDS011;36468;44.098;3.078;2023-03-24T09:06:10;2.10;;;1.00;;
50519;SDS011;36468;44.098;3.078;2023-03-24T09:08:36;5.38;;;1.00;;
50519;SDS011;36468;44.098;3.078;2023-03-24T09:11:03;3.60;;;0.80;;
50519;SDS011;36468;44.098;3.078;2023-03-24T09:13:29;2.88;;;0.88;;
50519;SDS011;36468;44.098;3.078;2023-03-24T09:15:59;5.45;;;2.17;;
50519;SDS011;36468;44.098;3.078;2023-03-24T09:18:25;2.05;;;1.10;;
50519;SDS011;36468;44.098;3.078;2023-03-24T09:20:52;1.17;;;0.80;;
50519;SDS011;36468;44.098;3.078;2023-03-24T09:23:18;3.78;;;0.90;;
50519;SDS011;36468;44.098;3.078;2023-03-24T09:25:44;0.93;;;0.60;;
50519;SDS011;36468;44.098;3.078;2023-03-24T09:28:10;0.60;;;0.50;;
50519;SDS011;36468;44.098;3.078;2023-03-24T09:30:37;0.63;;;0.50;;
50519;SDS011;36468;44.098;3.078;2023-03-24T09:33:03;1.65;;;0.50;;
50519;SDS011;36468;44.098;3.078;2023-03-24T09:35:30;3.58;;;0.60;;
50519;SDS011;36468;44.098;3.078;2023-03-24T09:37:56;1.38;;;0.50;;
50519;SDS011;36468;44.098;3.078;2023-03-24T09:40:23;1.50;;;0.60;;
50519;SDS011;36468;44.098;3.078;2023-03-24T09:45:22;1.50;;;0.60;;
50519;SDS011;36468;44.098;3.078;2023-03-24T09:47:50;1.05;;;0.60;;
50519;SDS011;36468;44.098;3.078;2023-03-24T09:50:22;5.45;;;0.68;;
50519;SDS011;36468;44.098;3.078;2023-03-24T09:52:50;1.08;;;0.52;;
50519;SDS011;36468;44.098;3.078;2023-03-24T09:55:23;1.67;;;0.68;;
50519;SDS011;36468;44.098;3.078;2023-03-24T09:57:49;2.60;;;0.93;;
50519;SDS011;36468;44.098;3.078;2023-03-24T10:00:20;6.15;;;1.20;;
50519;SDS011;36468;44.098;3.078;2023-03-24T10:02:47;3.83;;;0.70;;
50519;SDS011;36468;44.098;3.078;2023-03-24T10:05:27;1.73;;;0.70;;
50519;SDS011;36468;44.098;3.078;2023-03-24T10:07:56;1.05;;;0.60;;
50519;SDS011;36468;44.098;3.078;2023-03-24T10:12:51;1.27;;;0.55;;
50519;SDS011;36468;44.098;3.078;2023-03-24T10:26:01;1.83;;;0.93;;
50519;SDS011;36468;44.098;3.078;2023-03-24T10:31:07;1.70;;;0.70;;
50519;SDS011;36468;44.098;3.078;2023-03-24T10:33:36;2.10;;;0.93;;
50519;SDS011;36468;44.098;3.078;2023-03-24T10:36:13;2.72;;;0.70;;
50519;SDS011;36468;44.098;3.078;2023-03-24T10:38:40;5.38;;;1.10;;
50519;SDS011;36468;44.098;3.078;2023-03-24T10:41:08;3.28;;;0.70;;
50519;SDS011;36468;44.098;3.078;2023-03-24T10:43:35;4.75;;;1.50;;
50519;SDS011;36468;44.098;3.078;2023-03-24T10:46:02;1.10;;;0.52;;
50519;SDS011;36468;44.098;3.078;2023-03-24T10:48:44;1.92;;;1.50;;
50519;SDS011;36468;44.098;3.078;2023-03-24T10:52:12;7.43;;;3.60;;
50519;SDS011;36468;44.098;3.078;2023-03-24T10:54:10;3.08;;;2.30;;
50519;SDS011;36468;44.098;3.078;2023-03-24T10:56:39;1.77;;;1.17;;
50519;SDS011;36468;44.098;3.078;2023-03-24T10:59:18;6.25;;;3.75;;
50519;SDS011;36468;44.098;3.078;2023-03-24T11:01:44;1.10;;;0.43;;
50519;SDS011;36468;44.098;3.078;2023-03-24T11:04:13;1.73;;;0.85;;
50519;SDS011;36468;44.098;3.078;2023-03-24T11:06:51;3.30;;;1.20;;
50519;SDS011;36468;44.098;3.078;2023-03-24T11:09:19;1.75;;;0.50;;
50519;SDS011;36468;44.098;3.078;2023-03-24T11:11:46;1.65;;;0.60;;
50519;SDS011;36468;44.098;3.078;2023-03-24T11:14:27;0.80;;;0.60;;
50519;SDS011;36468;44.098;3.078;2023-03-24T11:17:09;1.73;;;0.80;;
50519;SDS011;36468;44.098;3.078;2023-03-24T11:19:36;1.23;;;0.77;;
50519;SDS011;36468;44.098;3.078;2023-03-24T11:22:03;2.55;;;0.73;;
50519;SDS011;36468;44.098;3.078;2023-03-24T11:24:34;0.90;;;0.68;;
50519;SDS011;36468;44.098;3.078;2023-03-24T11:27:01;2.40;;;1.40;;
50519;SDS011;36468;44.098;3.078;2023-03-24T11:29:31;2.60;;;1.70;;
50519;SDS011;36468;44.098;3.078;2023-03-24T11:32:02;2.97;;;0.80;;
50519;SDS011;36468;44.098;3.078;2023-03-24T11:34:33;1.63;;;0.90;;
50519;SDS011;36468;44.098;3.078;2023-03-24T11:39:32;1.48;;;1.00;;
50519;SDS011;36468;44.098;3.078;2023-03-24T11:42:25;1.02;;;0.77;;
50519;SDS011;36468;44.098;3.078;2023-03-24T11:44:51;7.20;;;1.00;;
50519;SDS011;36468;44.098;3.078;2023-03-24T11:47:23;2.35;;;1.00;;
50519;SDS011;36468;44.098;3.078;2023-03-24T11:52:30;2.47;;;0.70;;
50519;SDS011;36468;44.098;3.078;2023-03-24T11:54:58;1.67;;;0.73;;
50519;SDS011;36468;44.098;3.078;2023-03-24T12:20:43;4.72;;;0.90;;
50519;SDS011;36468;44.098;3.078;2023-03-24T12:25:48;2.47;;;0.73;;
50519;SDS011;36468;44.098;3.078;2023-03-24T12:28:26;3.40;;;1.00;;
50519;SDS011;36468;44.098;3.078;2023-03-24T12:54:35;1.33;;;0.80;;
50519;SDS011;36468;44.098;3.078;2023-03-24T12:57:16;2.80;;;0.98;;
50519;SDS011;36468;44.098;3.078;2023-03-24T12:59:47;2.00;;;0.93;;
50519;SDS011;36468;44.098;3.078;2023-03-24T13:04:40;5.30;;;0.95;;
50519;SDS011;36468;44.098;3.078;2023-03-24T13:07:11;4.43;;;0.82;;
50519;SDS011;36468;44.098;3.078;2023-03-24T13:09:46;5.20;;;1.05;;
50519;SDS011;36468;44.098;3.078;2023-03-24T13:12:22;1.83;;;0.82;;
50519;SDS011;36468;44.098;3.078;2023-03-24T13:20:24;3.20;;;0.80;;
50519;SDS011;36468;44.098;3.078;2023-03-24T13:22:51;2.17;;;0.73;;
50519;SDS011;36468;44.098;3.078;2023-03-24T13:28:19;2.90;;;0.90;;
50519;SDS011;36468;44.098;3.078;2023-03-24T13:30:47;1.63;;;0.70;;
50519;SDS011;36468;44.098;3.078;2023-03-24T13:33:20;2.10;;;0.80;;
50519;SDS011;36468;44.098;3.078;2023-03-24T13:41:06;2.33;;;0.80;;
50519;SDS011;36468;44.098;3.078;2023-03-24T13:43:35;3.70;;;1.00;;
50519;SDS011;36468;44.098;3.078;2023-03-24T13:46:04;3.35;;;1.10;;
50519;SDS011;36468;44.098;3.078;2023-03-24T13:51:24;5.07;;;0.90;;
50519;SDS011;36468;44.098;3.078;2023-03-24T13:53:52;7.25;;;1.30;;
50519;SDS011;36468;44.098;3.078;2023-03-24T13:56:37;6.57;;;1.23;;
50519;SDS011;36468;44.098;3.078;2023-03-24T13:59:08;3.30;;;0.98;;
50519;SDS011;36468;44.098;3.078;2023-03-24T14:01:43;4.75;;;1.20;;
50519;SDS011;36468;44.098;3.078;2023-03-24T14:04:14;4.13;;;1.33;;
50519;SDS011;36468;44.098;3.078;2023-03-24T14:06:47;3.83;;;1.73;;
50519;SDS011;36468;44.098;3.078;2023-03-24T14:12:34;5.18;;;1.10;;
50519;SDS011;36468;44.098;3.078;2023-03-24T14:14:36;4.72;;;1.25;;
50519;SDS011;36468;44.098;3.078;2023-03-24T14:17:21;3.10;;;0.95;;
50519;SDS011;36468;44.098;3.078;2023-03-24T14:22:27;8.15;;;1.70;;
50519;SDS011;36468;44.098;3.078;2023-03-24T14:25:05;6.38;;;1.38;;
50519;SDS011;36468;44.098;3.078;2023-03-24T14:27:43;5.28;;;1.40;;
50519;SDS011;36468;44.098;3.078;2023-03-24T14:32:39;5.10;;;1.50;;
50519;SDS011;36468;44.098;3.078;2023-03-24T14:35:21;5.85;;;1.50;;
50519;SDS011;36468;44.098;3.078;2023-03-24T14:37:58;3.53;;;1.50;;
50519;SDS011;36468;44.098;3.078;2023-03-24T14:40:47;3.63;;;1.23;;
50519;SDS011;36468;44.098;3.078;2023-03-24T14:43:22;4.40;;;1.52;;
50519;SDS011;36468;44.098;3.078;2023-03-24T14:45:54;2.03;;;1.17;;
50519;SDS011;36468;44.098;3.078;2023-03-24T14:48:31;1.15;;;1.00;;
50519;SDS011;36468;44.098;3.078;2023-03-24T14:50:59;3.20;;;1.30;;
50519;SDS011;36468;44.098;3.078;2023-03-24T14:53:26;4.93;;;1.58;;
50519;SDS011;36468;44.098;3.078;2023-03-24T14:55:52;3.47;;;1.27;;
50519;SDS011;36468;44.098;3.078;2023-03-24T14:58:23;5.88;;;1.60;;
50519;SDS011;36468;44.098;3.078;2023-03-24T15:00:53;4.77;;;1.60;;
50519;SDS011;36468;44.098;3.078;2023-03-24T15:05:52;0.95;;;0.70;;
50519;SDS011;36468;44.098;3.078;2023-03-24T15:08:19;1.55;;;0.80;;
50519;SDS011;36468;44.098;3.078;2023-03-24T15:15:50;0.93;;;0.68;;
50519;SDS011;36468;44.098;3.078;2023-03-24T15:18:16;1.63;;;1.42;;
50519;SDS011;36468;44.098;3.078;2023-03-24T15:23:16;2.10;;;1.40;;
50519;SDS011;36468;44.098;3.078;2023-03-24T15:25:43;1.48;;;1.02;;
50519;SDS011;36468;44.098;3.078;2023-03-24T15:28:32;3.15;;;0.95;;
50519;SDS011;36468;44.098;3.078;2023-03-24T15:30:57;1.38;;;1.02;;
50519;SDS011;36468;44.098;3.078;2023-03-24T15:33:24;1.77;;;0.70;;
50519;SDS011;36468;44.098;3.078;2023-03-24T15:35:58;1.80;;;0.90;;
50519;SDS011;36468;44.098;3.078;2023-03-24T15:38:27;1.13;;;0.50;;
50519;SDS011;36468;44.098;3.078;2023-03-24T15:41:03;0.57;;;0.40;;
50519;SDS011;36468;44.098;3.078;2023-03-24T15:43:30;1.10;;;0.50;;
50519;SDS011;36468;44.098;3.078;2023-03-24T15:45:57;1.58;;;0.60;;
50519;SDS011;36468;44.098;3.078;2023-03-24T15:48:33;0.90;;;0.50;;
50519;SDS011;36468;44.098;3.078;2023-03-24T15:51:00;0.82;;;0.52;;
50519;SDS011;36468;44.098;3.078;2023-03-24T15:53:28;1.70;;;0.50;;
50519;SDS011;36468;44.098;3.078;2023-03-24T16:01:10;1.70;;;0.88;;
50519;SDS011;36468;44.098;3.078;2023-03-24T16:03:41;2.15;;;1.20;;
50519;SDS011;36468;44.098;3.078;2023-03-24T16:06:11;0.70;;;0.40;;
50519;SDS011;36468;44.098;3.078;2023-03-24T16:08:38;0.68;;;0.35;;
50519;SDS011;36468;44.098;3.078;2023-03-24T16:11:08;0.98;;;0.50;;
50519;SDS011;36468;44.098;3.078;2023-03-24T16:13:36;2.05;;;0.60;;
50519;SDS011;36468;44.098;3.078;2023-03-24T16:16:07;1.35;;;0.47;;
50519;SDS011;36468;44.098;3.078;2023-03-24T16:18:35;1.45;;;0.60;;
50519;SDS011;36468;44.098;3.078;2023-03-24T16:21:04;2.00;;;0.70;;
50519;SDS011;36468;44.098;3.078;2023-03-24T16:23:34;0.63;;;0.47;;
50519;SDS011;36468;44.098;3.078;2023-03-24T16:26:00;0.75;;;0.73;;
50519;SDS011;36468;44.098;3.078;2023-03-24T16:28:27;3.03;;;1.80;;
50519;SDS011;36468;44.098;3.078;2023-03-24T16:31:02;4.22;;;2.40;;
50519;SDS011;36468;44.098;3.078;2023-03-24T16:33:29;3.28;;;1.30;;
50519;SDS011;36468;44.098;3.078;2023-03-24T16:35:56;0.98;;;0.30;;
50519;SDS011;36468;44.098;3.078;2023-03-24T16:38:22;1.02;;;0.57;;
50519;SDS011;36468;44.098;3.078;2023-03-24T16:40:52;2.42;;;0.82;;
50519;SDS011;36468;44.098;3.078;2023-03-24T16:43:19;5.03;;;2.60;;
50519;SDS011;36468;44.098;3.078;2023-03-24T16:45:45;1.75;;;0.90;;
50519;SDS011;36468;44.098;3.078;2023-03-24T16:48:12;5.90;;;1.40;;
50519;SDS011;36468;44.098;3.078;2023-03-24T16:50:39;1.98;;;1.30;;
50519;SDS011;36468;44.098;3.078;2023-03-24T16:53:06;9.43;;;4.07;;
50519;SDS011;36468;44.098;3.078;2023-03-24T16:55:36;13.02;;;6.47;;
50519;SDS011;36468;44.098;3.078;2023-03-24T16:58:03;5.47;;;2.30;;
50519;SDS011;36468;44.098;3.078;2023-03-24T17:00:29;15.40;;;4.00;;
50519;SDS011;36468;44.098;3.078;2023-03-24T17:02:55;7.50;;;2.45;;
50519;SDS011;36468;44.098;3.078;2023-03-24T17:05:33;4.80;;;1.85;;
50519;SDS011;36468;44.098;3.078;2023-03-24T17:08:00;5.97;;;2.92;;
50519;SDS011;36468;44.098;3.078;2023-03-24T17:10:26;5.80;;;2.35;;
50519;SDS011;36468;44.098;3.078;2023-03-24T17:12:53;4.47;;;1.30;;
50519;SDS011;36468;44.098;3.078;2023-03-24T17:15:21;4.45;;;1.30;;
50519;SDS011;36468;44.098;3.078;2023-03-24T17:17:47;4.40;;;2.00;;
50519;SDS011;36468;44.098;3.078;2023-03-24T17:20:14;6.38;;;2.50;;
50519;SDS011;36468;44.098;3.078;2023-03-24T17:22:41;6.15;;;1.70;;
50519;SDS011;36468;44.098;3.078;2023-03-24T17:25:08;7.80;;;3.30;;
50519;SDS011;36468;44.098;3.078;2023-03-24T17:27:34;7.32;;;2.65;;
50519;SDS011;36468;44.098;3.078;2023-03-24T17:30:00;6.68;;;2.50;;
50519;SDS011;36468;44.098;3.078;2023-03-24T17:32:27;7.93;;;1.83;;
50519;SDS011;36468;44.098;3.078;2023-03-24T17:34:55;6.13;;;1.80;;
50519;SDS011;36468;44.098;3.078;2023-03-24T17:37:21;13.10;;;4.75;;
50519;SDS011;36468;44.098;3.078;2023-03-24T17:39:47;4.05;;;1.50;;
50519;SDS011;36468;44.098;3.078;2023-03-24T17:42:13;8.35;;;1.83;;